Time;durP1;ratioP1;P1;durP2;ratioP2;P2;SDS_P1;SDS_P2;PMS_P1;PMS_P2;Temp;Humidity;BMP_temperature;BMP_pressure;BME280_temperature;BME280_humidity;BME280_pressure;Samples;Min_cycle;Max_cycle;Signal;HPM_P1;HPM_P2
2024/01/28 00:02:23;;;;;;;0.30;0.30;;;5.20;99.90;;;;;;5126862;27;20188;-82
2024/01/28 00:04:49;;;;;;;0.30;0.30;;;5.20;99.90;;;;;;5111480;28;20184;-82
2024/01/28 00:07:14;;;;;;;0.30;0.20;;;5.20;99.90;;;;;;5126565;27;20231;-82
2024/01/28 00:09:42;;;;;;;0.30;0.30;;;5.20;99.90;;;;;;5110529;28;20237;-78
2024/01/28 00:12:08;;;;;;;0.30;0.30;;;5.20;99.90;;;;;;5110929;28;20270;-77
2024/01/28 00:14:33;;;;;;;0.30;0.30;;;5.20;99.90;;;;;;5126202;27;20219;-82
2024/01/28 00:16:59;;;;;;;0.30;0.30;;;5.20;99.90;;;;;;5110270;28;20225;-78
2024/01/28 00:19:25;;;;;;;0.30;0.30;;;5.20;99.90;;;;;;5110343;28;20180;-83
2024/01/28 00:21:50;;;;;;;0.30;0.20;;;5.20;99.90;;;;;;5126773;27;20391;-78
2024/01/28 00:24:18;;;;;;;0.30;0.30;;;5.20;99.90;;;;;;5110390;28;20215;-82
2024/01/28 00:26:44;;;;;;;0.30;0.30;;;5.10;99.90;;;;;;5110223;28;20207;-82
2024/01/28 00:29:09;;;;;;;0.30;0.30;;;5.10;99.90;;;;;;5126096;27;20721;-78
2024/01/28 00:31:36;;;;;;;0.30;0.30;;;5.10;99.90;;;;;;5110954;28;20425;-78
2024/01/28 00:34:01;;;;;;;0.30;0.30;;;5.10;99.90;;;;;;5109889;28;20223;-78
2024/01/28 00:36:27;;;;;;;0.30;0.20;;;5.20;99.90;;;;;;5110400;28;20214;-77
2024/01/28 00:38:53;;;;;;;0.30;0.20;;;5.10;99.90;;;;;;5110212;28;20183;-77
2024/01/28 00:41:26;;;;;;;0.30;0.20;;;5.10;99.90;;;;;;5110476;28;20533;-78
2024/01/28 00:43:52;;;;;;;0.30;0.20;;;5.10;99.90;;;;;;5110340;28;20776;-82
2024/01/28 00:46:20;;;;;;;0.30;0.30;;;5.10;99.90;;;;;;5109025;28;20222;-77
2024/01/28 00:48:46;;;;;;;0.30;0.20;;;5.10;99.90;;;;;;5125797;27;20250;-83
2024/01/28 00:51:13;;;;;;;0.30;0.20;;;5.10;99.90;;;;;;5110398;28;20187;-77
2024/01/28 00:53:38;;;;;;;0.30;0.20;;;5.10;99.90;;;;;;5110142;28;20188;-81
2024/01/28 00:56:04;;;;;;;0.30;0.30;;;5.00;99.90;;;;;;5110265;28;20280;-78
2024/01/28 00:58:30;;;;;;;0.30;0.20;;;5.00;99.90;;;;;;5125809;27;20732;-78
2024/01/28 01:00:56;;;;;;;0.30;0.30;;;4.90;99.90;;;;;;5110189;28;20674;-78
2024/01/28 01:03:22;;;;;;;0.30;0.20;;;4.80;99.90;;;;;;5109900;28;20920;-82
2024/01/28 01:05:48;;;;;;;0.30;0.30;;;4.80;99.90;;;;;;5109989;28;20220;-82
2024/01/28 01:08:14;;;;;;;0.30;0.30;;;4.80;99.90;;;;;;5109769;28;20216;-80
2024/01/28 01:10:41;;;;;;;0.30;0.30;;;4.70;99.90;;;;;;5125697;28;21013;-82
2024/01/28 01:13:07;;;;;;;0.30;0.30;;;4.70;99.90;;;;;;5125708;28;20314;-82
2024/01/28 01:15:32;;;;;;;0.30;0.20;;;4.70;99.90;;;;;;5125559;28;20837;-83
2024/01/28 01:17:59;;;;;;;0.30;0.20;;;4.70;99.90;;;;;;5108669;28;20923;-77
2024/01/28 01:20:24;;;;;;;0.30;0.20;;;4.60;99.90;;;;;;5109632;28;20176;-82
2024/01/28 01:22:50;;;;;;;0.30;0.20;;;4.60;99.90;;;;;;5109807;28;20610;-82
2024/01/28 01:25:16;;;;;;;0.30;0.30;;;4.50;99.90;;;;;;5109693;28;20637;-82
2024/01/28 01:27:42;;;;;;;0.30;0.30;;;4.50;99.90;;;;;;5109167;28;20442;-78
2024/01/28 01:30:09;;;;;;;0.30;0.20;;;4.50;99.90;;;;;;5109589;28;20176;-78
2024/01/28 01:32:37;;;;;;;0.75;0.75;;;4.50;99.90;;;;;;5109710;28;20917;-78
2024/01/28 01:35:03;;;;;;;0.30;0.30;;;4.50;99.90;;;;;;5109507;28;20198;-82
2024/01/28 01:37:29;;;;;;;0.30;0.20;;;4.50;99.90;;;;;;5109660;28;20595;-77
2024/01/28 01:39:54;;;;;;;0.30;0.20;;;4.50;99.90;;;;;;5125243;28;20184;-77
2024/01/28 01:42:20;;;;;;;0.30;0.20;;;4.50;99.90;;;;;;5109436;28;20244;-82
2024/01/28 01:44:46;;;;;;;0.30;0.30;;;4.50;99.90;;;;;;5125659;28;20186;-82
2024/01/28 01:47:13;;;;;;;0.30;0.30;;;4.40;99.90;;;;;;5125676;28;20477;-78
2024/01/28 01:49:38;;;;;;;0.30;0.30;;;4.50;99.90;;;;;;5111817;28;20207;-77
2024/01/28 01:52:06;;;;;;;0.30;0.30;;;4.40;99.90;;;;;;5129577;27;20172;-78
2024/01/28 01:54:32;;;;;;;0.30;0.20;;;4.40;99.90;;;;;;5129049;27;20199;-83
2024/01/28 01:56:58;;;;;;;0.30;0.20;;;4.40;99.90;;;;;;5113692;28;20211;-77
2024/01/28 01:59:24;;;;;;;0.30;0.20;;;4.40;99.90;;;;;;5112949;28;20192;-78
2024/01/28 02:01:54;;;;;;;0.30;0.20;;;4.40;99.90;;;;;;5113387;28;20255;-78
2024/01/28 02:04:21;;;;;;;0.30;0.30;;;4.40;99.90;;;;;;5113115;28;20403;-82
2024/01/28 02:06:48;;;;;;;0.30;0.20;;;4.40;99.90;;;;;;5113275;28;20220;-81
2024/01/28 02:09:14;;;;;;;0.30;0.30;;;4.40;99.90;;;;;;5113499;28;20230;-77
2024/01/28 02:11:41;;;;;;;0.30;0.27;;;4.40;99.90;;;;;;5129138;27;20605;-77
2024/01/28 02:14:06;;;;;;;0.30;0.20;;;4.30;99.90;;;;;;5128519;27;20403;-82
2024/01/28 02:16:32;;;;;;;0.30;0.30;;;4.30;99.90;;;;;;5113271;28;20595;-83
2024/01/28 02:18:58;;;;;;;0.30;0.27;;;4.30;99.90;;;;;;5112886;28;20216;-77
2024/01/28 02:21:23;;;;;;;0.30;0.30;;;4.20;99.90;;;;;;5128069;27;20376;-81
2024/01/28 02:23:49;;;;;;;0.30;0.30;;;4.20;99.90;;;;;;5128822;27;20761;-82
2024/01/28 02:26:15;;;;;;;0.30;0.20;;;4.30;99.90;;;;;;5128511;27;20271;-78
2024/01/28 02:28:40;;;;;;;0.30;0.20;;;4.20;99.90;;;;;;5127873;27;20192;-78
2024/01/28 02:31:06;;;;;;;0.30;0.30;;;4.20;99.90;;;;;;5112576;28;20448;-77
2024/01/28 02:33:32;;;;;;;0.30;0.20;;;4.20;99.90;;;;;;5128303;27;20205;-83
2024/01/28 02:35:58;;;;;;;0.30;0.20;;;4.20;99.90;;;;;;5128725;27;20200;-77
2024/01/28 02:38:23;;;;;;;0.30;0.30;;;4.20;99.90;;;;;;5128260;27;20203;-82
2024/01/28 02:40:52;;;;;;;0.30;0.30;;;4.10;99.90;;;;;;5128135;27;20427;-78
2024/01/28 02:43:18;;;;;;;0.30;0.30;;;4.10;99.90;;;;;;5112501;28;20668;-77
2024/01/28 02:45:44;;;;;;;0.30;0.20;;;4.10;99.90;;;;;;5127938;27;20184;-77
2024/01/28 02:48:09;;;;;;;0.30;0.20;;;4.10;99.90;;;;;;5112075;28;20188;-82
2024/01/28 02:50:35;;;;;;;0.30;0.20;;;4.10;99.90;;;;;;5112618;28;20235;-82
2024/01/28 02:53:01;;;;;;;0.30;0.20;;;4.10;99.90;;;;;;5112445;28;20810;-77
2024/01/28 02:55:26;;;;;;;0.30;0.30;;;4.10;99.90;;;;;;5128058;27;20262;-76
2024/01/28 02:57:52;;;;;;;0.30;0.20;;;4.10;99.90;;;;;;5127891;27;20630;-77
2024/01/28 03:00:18;;;;;;;0.30;0.30;;;4.10;99.90;;;;;;5127376;27;20282;-77
2024/01/28 03:02:44;;;;;;;0.30;0.30;;;4.10;99.90;;;;;;5127943;27;20227;-82
2024/01/28 03:05:11;;;;;;;0.30;0.30;;;4.00;99.90;;;;;;5128075;27;20724;-82
2024/01/28 03:07:36;;;;;;;0.30;0.20;;;4.00;99.90;;;;;;5127771;27;20318;-77
2024/01/28 03:10:02;;;;;;;0.30;0.30;;;4.00;99.90;;;;;;5111646;28;20637;-78
2024/01/28 03:12:28;;;;;;;0.30;0.20;;;4.00;99.90;;;;;;5127834;27;20701;-82
2024/01/28 03:14:54;;;;;;;0.30;0.27;;;4.10;99.90;;;;;;5127737;27;20259;-77
2024/01/28 03:17:19;;;;;;;0.30;0.30;;;4.10;99.90;;;;;;5112178;28;20721;-77
2024/01/28 03:19:46;;;;;;;0.30;0.20;;;4.10;99.90;;;;;;5111943;27;20168;-82
2024/01/28 03:22:12;;;;;;;0.30;0.30;;;4.10;99.90;;;;;;5126826;27;20433;-82
2024/01/28 03:24:40;;;;;;;0.30;0.30;;;4.10;99.90;;;;;;5127323;27;20210;-82
2024/01/28 03:27:06;;;;;;;0.30;0.20;;;4.10;99.90;;;;;;5112097;28;20176;-77
2024/01/28 03:29:31;;;;;;;0.30;0.30;;;4.10;99.90;;;;;;5110653;28;20406;-77
2024/01/28 03:31:57;;;;;;;0.30;0.30;;;4.10;99.90;;;;;;5111623;28;20424;-77
2024/01/28 03:34:23;;;;;;;0.30;0.30;;;4.20;99.90;;;;;;5111296;28;20702;-82
2024/01/28 03:36:48;;;;;;;0.30;0.30;;;4.20;99.90;;;;;;5110467;28;20303;-77
2024/01/28 03:39:14;;;;;;;0.30;0.30;;;4.20;99.90;;;;;;5111565;28;20242;-77
2024/01/28 03:41:40;;;;;;;0.30;0.30;;;4.20;99.90;;;;;;5127459;27;20899;-81
2024/01/28 03:44:06;;;;;;;0.30;0.30;;;4.20;99.90;;;;;;5127159;27;20543;-76
2024/01/28 03:46:34;;;;;;;0.30;0.20;;;4.30;99.90;;;;;;5111500;28;20190;-77
2024/01/28 03:49:00;;;;;;;0.30;0.30;;;4.30;99.90;;;;;;5127272;27;20204;-81
2024/01/28 03:51:26;;;;;;;0.30;0.20;;;4.30;99.90;;;;;;5127287;27;20180;-76
2024/01/28 03:53:52;;;;;;;0.30;0.20;;;4.40;99.90;;;;;;5127014;27;20478;-81
2024/01/28 03:56:17;;;;;;;0.30;0.20;;;4.40;99.90;;;;;;5110933;28;20291;-77
2024/01/28 03:58:43;;;;;;;0.30;0.20;;;4.30;99.90;;;;;;5126855;27;20283;-77
2024/01/28 04:01:09;;;;;;;0.30;0.20;;;4.30;99.90;;;;;;5126823;27;20549;-81
2024/01/28 04:03:36;;;;;;;0.30;0.30;;;4.30;99.90;;;;;;5111102;28;20203;-82
2024/01/28 04:06:02;;;;;;;0.30;0.30;;;4.30;99.90;;;;;;5110781;28;20463;-81
2024/01/28 04:08:28;;;;;;;0.30;0.30;;;4.30;99.90;;;;;;5126376;27;20798;-77
2024/01/28 04:10:53;;;;;;;0.30;0.20;;;4.40;99.90;;;;;;5110419;28;20260;-77
2024/01/28 04:13:19;;;;;;;0.30;0.20;;;4.40;99.90;;;;;;5126521;27;20684;-82
2024/01/28 04:15:44;;;;;;;0.30;0.20;;;4.40;99.90;;;;;;5110813;28;20176;-77
2024/01/28 04:18:10;;;;;;;0.30;0.20;;;4.40;99.90;;;;;;5126267;27;20276;-82
2024/01/28 04:20:36;;;;;;;0.30;0.20;;;4.40;99.90;;;;;;5126184;27;20224;-77
2024/01/28 04:23:01;;;;;;;0.30;0.30;;;4.50;99.90;;;;;;5109590;28;20196;-82
2024/01/28 04:25:27;;;;;;;0.30;0.30;;;4.50;99.90;;;;;;5110596;28;20558;-77
2024/01/28 04:27:53;;;;;;;0.30;0.30;;;4.50;99.90;;;;;;5125764;27;20191;-82
2024/01/28 04:30:19;;;;;;;0.30;0.28;;;4.60;99.90;;;;;;5109992;28;20790;-77
2024/01/28 04:32:45;;;;;;;0.30;0.20;;;4.60;99.90;;;;;;5110886;28;20245;-77
2024/01/28 04:35:15;;;;;;;0.30;0.20;;;4.60;99.90;;;;;;5126438;27;20171;-82
2024/01/28 04:37:41;;;;;;;0.30;0.20;;;4.70;99.90;;;;;;5110231;28;20215;-77
2024/01/28 04:40:07;;;;;;;0.30;0.20;;;4.70;99.90;;;;;;5110451;28;20168;-82
2024/01/28 04:42:34;;;;;;;0.30;0.20;;;4.70;99.90;;;;;;5126240;27;20439;-82
2024/01/28 04:45:00;;;;;;;0.30;0.20;;;4.80;99.90;;;;;;5126178;27;20517;-77
2024/01/28 04:47:26;;;;;;;0.30;0.20;;;4.80;99.90;;;;;;5110456;28;20183;-77
2024/01/28 04:49:51;;;;;;;0.30;0.20;;;4.80;99.90;;;;;;5110043;28;20383;-78
2024/01/28 04:52:17;;;;;;;0.30;0.30;;;4.80;99.90;;;;;;5110543;28;20180;-77
2024/01/28 04:54:43;;;;;;;0.30;0.30;;;4.80;99.90;;;;;;5125827;27;20302;-82
2024/01/28 04:57:08;;;;;;;0.30;0.20;;;4.90;99.90;;;;;;5110287;28;20246;-82
2024/01/28 04:59:34;;;;;;;0.30;0.20;;;4.90;99.90;;;;;;5125565;27;20579;-82
2024/01/28 05:02:00;;;;;;;0.30;0.30;;;4.90;99.90;;;;;;5110205;28;20894;-77
2024/01/28 05:04:26;;;;;;;0.30;0.20;;;4.90;99.90;;;;;;5109828;28;20198;-77
2024/01/28 05:06:51;;;;;;;0.30;0.20;;;4.90;99.90;;;;;;5126007;27;20319;-82
2024/01/28 05:09:17;;;;;;;0.30;0.30;;;4.90;99.90;;;;;;5109780;28;20459;-82
2024/01/28 05:11:45;;;;;;;0.30;0.30;;;4.90;99.90;;;;;;5126053;28;20187;-77
2024/01/28 05:14:10;;;;;;;0.30;0.30;;;4.90;99.90;;;;;;5109724;28;20195;-77
2024/01/28 05:16:36;;;;;;;0.30;0.20;;;4.90;99.90;;;;;;5125348;28;20656;-77
2024/01/28 05:19:02;;;;;;;0.30;0.30;;;4.90;99.90;;;;;;5109568;28;20203;-82
2024/01/28 05:21:28;;;;;;;0.30;0.30;;;4.80;99.90;;;;;;5125835;28;20194;-82
2024/01/28 05:23:54;;;;;;;0.30;0.30;;;4.80;99.90;;;;;;5112886;28;20738;-79
2024/01/28 05:26:19;;;;;;;0.30;0.20;;;4.80;99.90;;;;;;5113152;28;20810;-82
2024/01/28 05:28:45;;;;;;;0.30;0.30;;;4.80;99.90;;;;;;5129224;27;20602;-77
2024/01/28 05:31:12;;;;;;;0.30;0.30;;;4.70;99.90;;;;;;5114098;28;20209;-82
2024/01/28 05:33:38;;;;;;;0.30;0.30;;;4.70;99.90;;;;;;5129622;27;20196;-82
2024/01/28 05:36:14;;;;;;;0.30;0.30;;;4.60;99.90;;;;;;5113885;28;20326;-77
2024/01/28 05:38:40;;;;;;;0.30;0.30;;;4.50;99.90;;;;;;5129557;27;20286;-81
2024/01/28 05:41:07;;;;;;;0.30;0.30;;;4.50;99.90;;;;;;5113656;28;20527;-82
2024/01/28 05:43:32;;;;;;;0.30;0.20;;;4.40;99.90;;;;;;5113483;28;20270;-82
2024/01/28 05:45:59;;;;;;;0.37;0.30;;;4.40;99.90;;;;;;5129351;27;20283;-82
2024/01/28 05:48:25;;;;;;;0.30;0.30;;;4.30;99.90;;;;;;5113385;28;20415;-81
2024/01/28 05:50:51;;;;;;;0.30;0.30;;;4.30;99.90;;;;;;5113519;28;20187;-82
2024/01/28 05:53:16;;;;;;;0.30;0.30;;;4.30;99.90;;;;;;5129154;27;20406;-82
2024/01/28 05:55:42;;;;;;;0.30;0.30;;;4.20;99.90;;;;;;5113515;28;20366;-82
2024/01/28 05:58:08;;;;;;;0.30;0.30;;;4.20;99.90;;;;;;5128969;27;20218;-77
2024/01/28 06:00:34;;;;;;;0.30;0.30;;;4.20;99.90;;;;;;5113502;28;20190;-82
2024/01/28 06:03:00;;;;;;;0.30;0.20;;;4.20;99.90;;;;;;5112956;28;20456;-81
2024/01/28 06:05:25;;;;;;;0.30;0.30;;;4.10;99.90;;;;;;5112973;28;20928;-82
2024/01/28 06:07:51;;;;;;;0.30;0.30;;;4.10;99.90;;;;;;5128832;27;20484;-77
2024/01/28 06:10:17;;;;;;;0.30;0.30;;;4.10;99.90;;;;;;5112983;28;20202;-77
2024/01/28 06:12:42;;;;;;;0.30;0.30;;;4.10;99.90;;;;;;5113328;28;20223;-77
2024/01/28 06:15:08;;;;;;;0.30;0.30;;;4.00;99.90;;;;;;5112815;28;20570;-77
2024/01/28 06:17:37;;;;;;;0.30;0.20;;;4.00;99.90;;;;;;5113112;28;20265;-81
2024/01/28 06:20:06;;;;;;;0.30;0.30;;;3.90;99.90;;;;;;5112803;28;20379;-77
2024/01/28 06:22:32;;;;;;;0.30;0.30;;;3.90;99.90;;;;;;5113319;28;20244;-82
2024/01/28 06:24:59;;;;;;;0.30;0.20;;;3.90;99.90;;;;;;5128581;27;20656;-78
2024/01/28 06:27:25;;;;;;;0.30;0.20;;;3.90;99.90;;;;;;5111950;28;20750;-78
2024/01/28 06:29:51;;;;;;;0.30;0.30;;;3.80;99.90;;;;;;5111690;28;20179;-82
2024/01/28 06:32:17;;;;;;;0.30;0.30;;;3.80;99.90;;;;;;5113122;28;20502;-78
2024/01/28 06:34:44;;;;;;;0.30;0.30;;;3.70;99.90;;;;;;5127808;27;20740;-77
2024/01/28 06:37:10;;;;;;;0.30;0.30;;;3.70;99.90;;;;;;5128831;27;20223;-78
2024/01/28 06:39:35;;;;;;;0.30;0.30;;;3.60;99.90;;;;;;5128090;27;20740;-82
2024/01/28 06:42:01;;;;;;;0.30;0.30;;;3.60;99.90;;;;;;5128627;27;20407;-82
2024/01/28 06:44:27;;;;;;;0.30;0.20;;;3.60;99.90;;;;;;5112329;28;20200;-78
2024/01/28 06:46:53;;;;;;;0.30;0.30;;;3.60;99.90;;;;;;5112448;28;20228;-77
2024/01/28 06:49:20;;;;;;;0.30;0.30;;;3.60;99.90;;;;;;5112498;28;20397;-78
2024/01/28 06:51:45;;;;;;;0.30;0.30;;;3.60;99.90;;;;;;5112790;28;20203;-82
2024/01/28 06:54:11;;;;;;;0.30;0.30;;;3.60;99.90;;;;;;5127872;27;20227;-82
2024/01/28 06:56:37;;;;;;;0.30;0.30;;;3.60;99.90;;;;;;5112560;28;20647;-77
2024/01/28 06:59:02;;;;;;;0.30;0.30;;;3.70;99.90;;;;;;5112076;28;20428;-77
2024/01/28 07:01:29;;;;;;;0.30;0.30;;;3.70;99.90;;;;;;5128340;27;20213;-77
2024/01/28 07:03:54;;;;;;;0.30;0.30;;;3.70;99.90;;;;;;5127830;27;20235;-82
2024/01/28 07:06:20;;;;;;;0.30;0.20;;;3.80;99.90;;;;;;5112003;28;20292;-82
2024/01/28 07:08:46;;;;;;;0.30;0.20;;;3.90;99.90;;;;;;5111919;28;20196;-77
2024/01/28 07:11:12;;;;;;;0.30;0.30;;;3.90;99.90;;;;;;5111839;28;20417;-81
2024/01/28 07:13:37;;;;;;;0.30;0.30;;;4.00;99.90;;;;;;5111767;28;20219;-77
2024/01/28 07:16:03;;;;;;;0.30;0.30;;;4.10;99.90;;;;;;5127679;27;20184;-77
2024/01/28 07:18:29;;;;;;;0.30;0.30;;;4.20;99.90;;;;;;5127651;27;20207;-78
2024/01/28 07:20:55;;;;;;;0.30;0.30;;;4.40;99.90;;;;;;5127662;27;20394;-82
2024/01/28 07:23:20;;;;;;;0.33;0.30;;;4.70;99.90;;;;;;5111581;28;20184;-77
2024/01/28 07:25:46;;;;;;;0.30;0.30;;;5.20;99.90;;;;;;5111482;28;20186;-77
2024/01/28 07:28:12;;;;;;;0.30;0.30;;;5.50;99.90;;;;;;5127267;27;20199;-81
2024/01/28 07:30:38;;;;;;;0.30;0.20;;;5.80;99.90;;;;;;5110077;27;20428;-77
2024/01/28 07:33:07;;;;;;;0.30;0.20;;;5.90;99.90;;;;;;5127228;27;20191;-82
2024/01/28 07:35:34;;;;;;;0.30;0.30;;;6.00;99.90;;;;;;5111617;28;20199;-82
2024/01/28 07:38:00;;;;;;;0.30;0.30;;;6.10;99.90;;;;;;5111334;28;20215;-81
2024/01/28 07:40:26;;;;;;;0.30;0.20;;;6.20;99.90;;;;;;5111375;28;20175;-77
2024/01/28 07:42:51;;;;;;;0.30;0.30;;;6.40;99.90;;;;;;5111292;28;20410;-77
2024/01/28 07:45:19;;;;;;;0.30;0.30;;;6.50;99.90;;;;;;5111149;28;20574;-78
2024/01/28 07:47:45;;;;;;;0.30;0.30;;;6.80;99.90;;;;;;5126188;27;20196;-82
2024/01/28 07:50:10;;;;;;;0.30;0.30;;;7.10;99.90;;;;;;5111101;28;20183;-78
2024/01/28 07:52:36;;;;;;;0.30;0.30;;;7.50;99.90;;;;;;5111346;28;20539;-78
2024/01/28 07:55:02;;;;;;;0.30;0.30;;;7.90;99.90;;;;;;5111078;28;20320;-78
2024/01/28 07:57:27;;;;;;;0.30;0.30;;;8.30;99.90;;;;;;5111541;28;20212;-77
2024/01/28 07:59:53;;;;;;;0.40;0.30;;;8.80;99.90;;;;;;5110828;28;20179;-81
2024/01/28 08:02:19;;;;;;;0.30;0.30;;;9.10;99.90;;;;;;5127019;27;20183;-82
2024/01/28 08:04:46;;;;;;;0.40;0.30;;;9.50;99.90;;;;;;5110936;28;20176;-81
2024/01/28 08:07:12;;;;;;;18.10;14.80;;;10.00;99.90;;;;;;5111212;28;20239;-82
2024/01/28 08:09:38;;;;;;;1.07;1.07;;;10.60;99.90;;;;;;5109069;28;20573;-82
2024/01/28 08:12:04;;;;;;;2.50;2.30;;;11.10;99.90;;;;;;5126622;27;20183;-78
2024/01/28 08:14:30;;;;;;;0.40;0.30;;;11.50;99.90;;;;;;5110558;28;20604;-82
2024/01/28 08:16:55;;;;;;;0.40;0.30;;;12.00;99.90;;;;;;5126687;27;20219;-83
2024/01/28 08:19:21;;;;;;;0.40;0.40;;;12.70;99.90;;;;;;5110554;28;20639;-78
2024/01/28 08:21:48;;;;;;;0.40;0.30;;;13.50;99.90;;;;;;5126733;27;20192;-77
2024/01/28 08:24:13;;;;;;;0.40;0.30;;;14.10;99.90;;;;;;5110249;28;20456;-78
2024/01/28 08:26:40;;;;;;;0.60;0.60;;;14.70;98.80;;;;;;5126731;27;20510;-79
2024/01/28 08:29:05;;;;;;;4.17;1.70;;;15.30;97.60;;;;;;5110419;28;20180;-78
2024/01/28 08:31:31;;;;;;;0.40;0.30;;;15.90;96.70;;;;;;5109182;28;20488;-78
2024/01/28 08:33:57;;;;;;;1.27;1.17;;;16.40;95.20;;;;;;5126148;27;20202;-82
2024/01/28 08:36:23;;;;;;;0.30;0.20;;;16.90;93.80;;;;;;5110734;28;20180;-78
2024/01/28 08:38:48;;;;;;;0.40;0.30;;;17.30;92.80;;;;;;5126429;27;20822;-83
2024/01/28 08:41:14;;;;;;;22.27;1.73;;;17.70;91.50;;;;;;5110179;28;20207;-81
2024/01/28 08:43:40;;;;;;;0.40;0.30;;;18.10;90.70;;;;;;5110420;28;20196;-79
2024/01/28 08:46:06;;;;;;;1.13;1.13;;;18.40;89.40;;;;;;5125670;27;20185;-83
2024/01/28 08:48:32;;;;;;;0.40;0.40;;;18.70;87.60;;;;;;5110045;28;20413;-83
2024/01/28 08:50:57;;;;;;;0.33;0.23;;;19.00;87.00;;;;;;5125968;27;20642;-82
2024/01/28 08:53:23;;;;;;;0.40;0.30;;;19.30;86.30;;;;;;5125627;27;20190;-83
2024/01/28 08:55:49;;;;;;;0.40;0.30;;;19.60;84.20;;;;;;5126097;27;20187;-79
2024/01/28 08:58:15;;;;;;;1.50;1.40;;;20.00;83.00;;;;;;5109520;28;20678;-79
2024/01/28 09:00:41;;;;;;;0.40;0.20;;;20.20;82.20;;;;;;5110333;28;20182;-79
2024/01/28 09:03:06;;;;;;;0.40;0.20;;;20.50;80.80;;;;;;5125570;27;20713;-78
2024/01/28 09:05:32;;;;;;;0.40;0.20;;;20.80;79.00;;;;;;5125633;27;20240;-83
2024/01/28 09:07:59;;;;;;;0.60;0.60;;;21.10;78.00;;;;;;5108937;28;20223;-82
2024/01/28 09:10:25;;;;;;;0.40;0.30;;;21.40;77.10;;;;;;5109875;28;20423;-82
2024/01/28 09:12:50;;;;;;;0.40;0.30;;;21.70;77.90;;;;;;5109890;28;20288;-79
2024/01/28 09:15:16;;;;;;;0.40;0.30;;;21.90;75.40;;;;;;5125492;28;20195;-79
2024/01/28 09:17:42;;;;;;;0.90;0.90;;;22.20;74.80;;;;;;5125443;28;20725;-79
2024/01/28 09:20:09;;;;;;;1.17;1.17;;;22.40;74.30;;;;;;5109936;28;20204;-79
2024/01/28 09:22:35;;;;;;;0.40;0.30;;;22.70;72.90;;;;;;5109840;28;20431;-79
2024/01/28 09:25:04;;;;;;;0.30;0.30;;;22.90;72.50;;;;;;5110032;28;20686;-79
2024/01/28 09:27:30;;;;;;;0.40;0.30;;;23.00;71.30;;;;;;5125873;28;20866;-79
2024/01/28 09:29:56;;;;;;;0.30;0.30;;;23.10;70.70;;;;;;5125241;28;20468;-82
2024/01/28 09:32:24;;;;;;;0.40;0.20;;;23.10;71.00;;;;;;5124543;28;20610;-79
2024/01/28 09:34:51;;;;;;;0.30;0.30;;;23.20;70.80;;;;;;5125164;28;20706;-83
2024/01/28 09:37:17;;;;;;;0.40;0.30;;;23.20;70.60;;;;;;5110257;28;20520;-79
2024/01/28 09:39:43;;;;;;;0.40;0.30;;;23.30;69.50;;;;;;5125405;28;20991;-82
2024/01/28 09:42:36;;;;;;;0.40;0.30;;;23.30;70.20;;;;;;5109887;28;20420;-79
2024/01/28 09:45:02;;;;;;;0.40;0.20;;;23.30;69.00;;;;;;5125360;28;20424;-83
2024/01/28 09:47:32;;;;;;;0.40;0.20;;;23.10;69.50;;;;;;5125685;28;20785;-79
2024/01/28 09:49:59;;;;;;;0.40;0.20;;;22.70;69.00;;;;;;5109579;28;20408;-82
2024/01/28 09:52:25;;;;;;;0.40;0.40;;;22.10;70.40;;;;;;5125383;28;20434;-78
2024/01/28 09:54:51;;;;;;;0.40;0.30;;;21.60;71.50;;;;;;5125127;28;20416;-81
2024/01/28 09:57:17;;;;;;;0.40;0.30;;;21.20;71.40;;;;;;5125284;28;20549;-78
2024/01/28 09:59:45;;;;;;;0.40;0.33;;;21.00;72.40;;;;;;5124939;28;20443;-82
2024/01/28 10:02:12;;;;;;;10.00;2.17;;;20.90;72.80;;;;;;5125258;28;20430;-83
2024/01/28 10:04:39;;;;;;;0.40;0.20;;;20.90;71.20;;;;;;5109124;28;20749;-79
2024/01/28 10:07:07;;;;;;;0.30;0.20;;;20.90;71.10;;;;;;5109435;28;20463;-79
2024/01/28 10:09:33;;;;;;;0.40;0.20;;;20.70;71.70;;;;;;5125630;27;20451;-78
2024/01/28 10:11:59;;;;;;;0.40;0.20;;;20.40;71.70;;;;;;5129205;27;20927;-78
2024/01/28 10:14:25;;;;;;;0.40;0.30;;;20.10;72.20;;;;;;5128624;27;20249;-79
2024/01/28 10:16:54;;;;;;;0.30;0.20;;;19.80;72.00;;;;;;5113341;28;20471;-82
2024/01/28 10:19:20;;;;;;;0.30;0.20;;;19.50;72.50;;;;;;5128600;27;20807;-78
2024/01/28 10:21:46;;;;;;;0.93;0.83;;;19.10;72.30;;;;;;5128787;27;20471;-82
2024/01/28 10:24:14;;;;;;;1.27;1.17;;;18.70;73.60;;;;;;5128613;27;20727;-83
2024/01/28 10:26:40;;;;;;;0.40;0.20;;;18.40;73.50;;;;;;5113386;28;20437;-78
2024/01/28 10:29:08;;;;;;;0.30;0.20;;;18.00;74.50;;;;;;5128495;27;20429;-78
2024/01/28 10:31:34;;;;;;;0.47;0.40;;;17.60;74.50;;;;;;5128235;27;20436;-81
2024/01/28 10:34:00;;;;;;;0.37;0.20;;;17.20;75.10;;;;;;5127085;27;20435;-78
2024/01/28 10:36:26;;;;;;;0.40;0.20;;;16.70;75.30;;;;;;5128564;27;20179;-78
2024/01/28 10:38:54;;;;;;;0.33;0.20;;;16.30;76.50;;;;;;5128706;27;20195;-78
2024/01/28 10:41:21;;;;;;;0.40;0.20;;;15.90;77.90;;;;;;5128469;27;20176;-82
2024/01/28 10:44:02;;;;;;;0.40;0.20;;;15.60;78.10;;;;;;5112624;28;20443;-78
2024/01/28 10:46:34;;;;;;;2.10;2.00;;;15.40;79.10;;;;;;5128405;27;20937;-78
2024/01/28 10:49:04;;;;;;;0.30;0.20;;;15.20;78.90;;;;;;5112304;28;20439;-82
2024/01/28 10:51:31;;;;;;;1.07;0.87;;;15.10;79.60;;;;;;5128364;27;20424;-78
2024/01/28 10:53:58;;;;;;;0.40;0.20;;;14.90;79.40;;;;;;5112200;28;20505;-78
2024/01/28 10:56:24;;;;;;;0.40;0.30;;;14.80;79.30;;;;;;5128362;27;20463;-83
2024/01/28 10:58:50;;;;;;;0.30;0.20;;;14.50;80.70;;;;;;5112471;28;20524;-78
2024/01/28 11:01:17;;;;;;;0.30;0.20;;;14.30;80.60;;;;;;5128324;27;20872;-78
2024/01/28 11:03:44;;;;;;;0.40;0.30;;;14.20;80.60;;;;;;5128376;27;20496;-77
2024/01/28 11:06:10;;;;;;;0.50;0.50;;;14.00;81.40;;;;;;5111923;28;20487;-78
2024/01/28 11:08:36;;;;;;;0.40;0.30;;;13.80;82.40;;;;;;5128021;27;20432;-78
2024/01/28 11:11:02;;;;;;;0.40;0.20;;;13.70;82.80;;;;;;5112115;28;20690;-82
2024/01/28 11:13:27;;;;;;;0.30;0.20;;;13.60;82.50;;;;;;5127837;27;20448;-82
2024/01/28 11:15:56;;;;;;;0.30;0.20;;;13.50;83.10;;;;;;5111580;28;20213;-83
2024/01/28 11:18:31;;;;;;;0.40;0.20;;;13.30;83.30;;;;;;5127729;27;20594;-82
2024/01/28 11:20:57;;;;;;;0.50;0.47;;;13.20;84.50;;;;;;5127380;27;20455;-82
2024/01/28 11:23:23;;;;;;;0.30;0.20;;;13.10;84.00;;;;;;5112087;28;20876;-82
2024/01/28 11:25:53;;;;;;;0.30;0.20;;;13.10;84.10;;;;;;5111773;28;20204;-78
2024/01/28 11:28:20;;;;;;;0.30;0.20;;;13.00;84.60;;;;;;5111849;28;20192;-78
2024/01/28 11:30:52;;;;;;;0.40;0.20;;;13.00;85.20;;;;;;5127381;27;20532;-78
2024/01/28 11:33:17;;;;;;;0.40;0.20;;;13.00;85.10;;;;;;5111047;28;20428;-81
2024/01/28 11:35:45;;;;;;;1.73;1.73;;;12.90;85.10;;;;;;5110467;28;20400;-78
2024/01/28 11:38:20;;;;;;;0.50;0.50;;;12.90;86.00;;;;;;5127075;27;20710;-78
2024/01/28 11:40:52;;;;;;;0.50;0.50;;;12.90;85.20;;;;;;5127271;27;20538;-82
2024/01/28 11:43:18;;;;;;;0.30;0.20;;;12.80;85.70;;;;;;5111752;28;20807;-82
2024/01/28 11:45:44;;;;;;;0.57;0.57;;;12.80;86.20;;;;;;5111294;28;20480;-83
2024/01/28 11:48:11;;;;;;;0.37;0.30;;;12.70;86.00;;;;;;5127453;27;20440;-78
2024/01/28 11:50:38;;;;;;;0.30;0.20;;;12.70;86.30;;;;;;5111402;28;20220;-83
2024/01/28 11:53:09;;;;;;;0.30;0.20;;;12.70;85.90;;;;;;5126923;27;20440;-83
2024/01/28 11:55:35;;;;;;;0.53;0.53;;;12.70;86.00;;;;;;5111007;28;20431;-82
2024/01/28 11:58:01;;;;;;;0.30;0.20;;;12.70;86.10;;;;;;5111027;28;20467;-78
2024/01/28 12:00:26;;;;;;;0.30;0.20;;;12.70;86.30;;;;;;5110759;28;20201;-83
2024/01/28 12:02:52;;;;;;;0.30;0.20;;;12.70;86.50;;;;;;5110115;28;20445;-83
2024/01/28 12:05:18;;;;;;;0.30;0.27;;;12.70;86.60;;;;;;5109766;28;20924;-78
2024/01/28 12:07:46;;;;;;;0.30;0.20;;;12.70;86.70;;;;;;5125369;27;20464;-78
2024/01/28 12:10:13;;;;;;;1.33;1.33;;;12.70;86.90;;;;;;5123528;27;20201;-83
2024/01/28 12:12:42;;;;;;;14.83;10.03;;;12.60;87.10;;;;;;5087664;28;20524;-83
2024/01/28 12:15:12;;;;;;;0.40;0.40;;;12.60;87.20;;;;;;5087550;28;20405;-83
2024/01/28 12:17:38;;;;;;;0.30;0.20;;;12.70;87.30;;;;;;5090400;28;20985;-83
2024/01/28 12:20:06;;;;;;;0.30;0.20;;;12.70;88.00;;;;;;5089986;28;20838;-79
2024/01/28 12:22:39;;;;;;;2.30;2.10;;;12.70;88.10;;;;;;5089781;28;20436;-83
2024/01/28 12:25:09;;;;;;;0.30;0.20;;;12.70;88.10;;;;;;5090027;28;20424;-82
2024/01/28 12:27:36;;;;;;;3.87;3.60;;;12.70;88.50;;;;;;5090698;28;20515;-83
2024/01/28 12:30:02;;;;;;;0.30;0.20;;;12.80;87.80;;;;;;5089908;28;20405;-82
2024/01/28 12:32:29;;;;;;;0.30;0.30;;;12.80;87.40;;;;;;5087836;28;20421;-78
2024/01/28 12:34:56;;;;;;;0.30;0.20;;;12.90;87.00;;;;;;5088677;28;20425;-78
2024/01/28 12:37:24;;;;;;;0.30;0.20;;;12.90;87.30;;;;;;5086863;28;20461;-83
2024/01/28 12:39:50;;;;;;;3.23;2.53;;;12.90;87.50;;;;;;5089994;28;20405;-78
2024/01/28 12:42:18;;;;;;;1.70;1.60;;;13.00;86.20;;;;;;5090479;28;20443;-82
2024/01/28 12:44:44;;;;;;;1.30;1.30;;;13.00;86.30;;;;;;5088128;28;20591;-79
2024/01/28 12:47:10;;;;;;;0.30;0.20;;;13.00;86.10;;;;;;5088669;28;20432;-79
2024/01/28 12:49:36;;;;;;;0.30;0.20;;;13.00;86.00;;;;;;5088343;28;20437;-83